Time;durP1;ratioP1;P1;durP2;ratioP2;P2;SDS_P1;SDS_P2;PMS_P1;PMS_P2;Temp;Humidity;BMP_temperature;BMP_pressure;BME280_temperature;BME280_humidity;BME280_pressure;Samples;Min_cycle;Max_cycle;Signal;HPM_P1;HPM_P2
2022/08/23 00:01:10;;;;;;;4.95;1.98;;;23.80;66.20;;;;;;5091634;28;20052;-61
2022/08/23 00:03:35;;;;;;;5.90;1.52;;;23.80;66.30;;;;;;5093223;28;20039;-61
2022/08/23 00:06:01;;;;;;;6.38;2.65;;;23.80;66.90;;;;;;5093225;28;20147;-63
2022/08/23 00:08:28;;;;;;;3.30;1.67;;;23.80;66.30;;;;;;5091382;28;20131;-61
2022/08/23 00:10:54;;;;;;;4.22;1.88;;;23.80;66.30;;;;;;5093168;28;20047;-61
2022/08/23 00:13:19;;;;;;;4.70;2.05;;;23.80;66.30;;;;;;5092916;28;20526;-62
2022/08/23 00:15:45;;;;;;;3.63;1.90;;;23.80;66.30;;;;;;5092376;28;20040;-61
2022/08/23 00:18:13;;;;;;;4.78;1.85;;;23.80;66.30;;;;;;5093099;28;20040;-61
2022/08/23 00:20:38;;;;;;;3.83;2.17;;;23.80;66.30;;;;;;5093040;28;20047;-61
2022/08/23 00:23:04;;;;;;;3.70;1.80;;;23.80;66.30;;;;;;5092836;28;20048;-61
2022/08/23 00:25:30;;;;;;;3.60;1.80;;;23.70;66.30;;;;;;5092689;28;20491;-61
2022/08/23 00:27:55;;;;;;;3.70;1.77;;;23.80;66.40;;;;;;5093185;28;20059;-61
2022/08/23 00:30:21;;;;;;;3.15;2.00;;;23.70;66.30;;;;;;5091728;28;20090;-61
2022/08/23 00:32:46;;;;;;;4.72;1.80;;;23.80;66.40;;;;;;5092964;28;20112;-61
2022/08/23 00:35:12;;;;;;;3.85;2.10;;;23.70;66.30;;;;;;5092812;28;20135;-61
2022/08/23 00:37:38;;;;;;;2.65;1.60;;;23.70;66.30;;;;;;5092121;28;20040;-62
2022/08/23 00:40:05;;;;;;;3.42;1.60;;;23.70;66.30;;;;;;5091913;28;20051;-62
2022/08/23 00:48:35;;;;;;;4.90;1.83;;;23.70;66.40;;;;;;5091676;28;20044;-61
2022/08/23 00:51:22;;;;;;;3.83;1.80;;;23.70;66.40;;;;;;5090808;28;20173;-62
2022/08/23 00:53:51;;;;;;;6.00;1.60;;;23.70;66.30;;;;;;5081481;28;20084;-61
2022/08/23 00:56:17;;;;;;;2.47;1.63;;;23.70;66.40;;;;;;5091213;28;20048;-61
2022/08/23 00:58:44;;;;;;;2.70;1.63;;;23.70;66.40;;;;;;5090946;28;20040;-61
2022/08/23 01:01:10;;;;;;;6.93;1.80;;;23.70;66.40;;;;;;5092812;28;20122;-61
2022/08/23 01:03:37;;;;;;;3.33;1.60;;;23.70;66.40;;;;;;5091327;28;20498;-61
2022/08/23 01:06:15;;;;;;;3.83;1.75;;;23.70;66.40;;;;;;5092057;28;20126;-62
2022/08/23 01:08:45;;;;;;;;;;;23.70;66.40;;;;;;5093345;28;20036;-61
2022/08/23 01:11:31;;;;;;;5.57;1.80;;;23.70;66.30;;;;;;5090477;28;20308;-61
2022/08/23 01:14:04;;;;;;;3.63;1.60;;;23.70;66.50;;;;;;5091663;28;20051;-61
2022/08/23 01:16:36;;;;;;;3.47;1.80;;;23.70;66.50;;;;;;5092056;28;20040;-61
2022/08/23 01:19:02;;;;;;;3.75;1.52;;;23.70;66.50;;;;;;5091676;28;20391;-61
2022/08/23 01:21:37;;;;;;;3.30;1.95;;;23.70;66.50;;;;;;5091140;28;20043;-61
2022/08/23 01:24:02;;;;;;;3.20;1.70;;;23.70;66.50;;;;;;5091189;28;20040;-62
2022/08/23 01:26:30;;;;;;;2.25;1.30;;;23.70;66.50;;;;;;5089201;28;20073;-61
2022/08/23 01:28:56;;;;;;;5.10;2.10;;;23.70;66.50;;;;;;5092593;28;20040;-61
2022/08/23 01:31:22;;;;;;;4.40;1.63;;;23.70;66.50;;;;;;5091937;28;20517;-61
2022/08/23 01:33:55;;;;;;;2.75;1.63;;;23.70;66.50;;;;;;5091739;28;20564;-61
2022/08/23 01:36:21;;;;;;;4.28;1.80;;;23.70;66.50;;;;;;5090841;28;20048;-61
2022/08/23 01:38:47;;;;;;;2.58;1.60;;;23.70;66.50;;;;;;5074010;28;20043;-61
2022/08/23 01:41:12;;;;;;;2.55;1.50;;;23.60;66.50;;;;;;5090171;28;20385;-61
2022/08/23 01:43:38;;;;;;;2.92;1.45;;;23.70;66.60;;;;;;5091844;28;20067;-61
2022/08/23 01:46:14;;;;;;;1.98;1.30;;;23.60;66.50;;;;;;5092242;28;20040;-61
2022/08/23 01:48:39;;;;;;;2.35;1.52;;;23.60;66.50;;;;;;5092077;28;20044;-61
2022/08/23 01:51:06;;;;;;;2.55;1.30;;;23.60;66.50;;;;;;5093913;28;20036;-61
2022/08/23 01:53:31;;;;;;;3.55;1.75;;;23.60;66.50;;;;;;5095131;28;20044;-62
2022/08/23 01:55:57;;;;;;;3.17;1.50;;;23.60;66.50;;;;;;5095927;28;20077;-61
2022/08/23 01:58:22;;;;;;;2.40;1.42;;;23.60;66.50;;;;;;5094575;28;20032;-62
2022/08/23 02:00:48;;;;;;;5.35;1.95;;;23.60;66.60;;;;;;5093574;28;20511;-61
2022/08/23 02:03:14;;;;;;;2.22;1.25;;;23.60;66.50;;;;;;5095882;28;20039;-61
2022/08/23 02:05:41;;;;;;;3.10;1.40;;;23.60;66.60;;;;;;5095179;28;20044;-61
2022/08/23 02:10:51;;;;;;;2.67;1.48;;;23.60;66.60;;;;;;5095589;28;20044;-61
2022/08/23 02:13:17;;;;;;;3.30;1.58;;;23.60;66.60;;;;;;5095476;28;20394;-62
2022/08/23 02:15:43;;;;;;;3.05;1.52;;;23.60;66.60;;;;;;5127650;27;20466;-61
2022/08/23 02:18:10;;;;;;;2.72;1.40;;;23.60;66.60;;;;;;5095244;28;20032;-61
2022/08/23 02:20:35;;;;;;;3.47;1.60;;;23.60;66.60;;;;;;5095159;28;20495;-61
2022/08/23 02:23:01;;;;;;;2.95;1.63;;;23.60;66.60;;;;;;5094736;28;20085;-62
2022/08/23 02:25:27;;;;;;;2.35;1.40;;;23.60;66.60;;;;;;5095078;28;20085;-62
2022/08/23 02:27:53;;;;;;;2.63;1.40;;;23.60;66.60;;;;;;5095370;28;20048;-61
2022/08/23 02:30:18;;;;;;;2.97;1.55;;;23.60;66.60;;;;;;5093051;28;20105;-61
2022/08/23 02:32:44;;;;;;;2.70;1.58;;;23.60;66.60;;;;;;5094626;28;20071;-61
2022/08/23 02:35:10;;;;;;;2.35;1.30;;;23.60;66.60;;;;;;5095316;28;20043;-61
2022/08/23 02:37:35;;;;;;;2.83;1.40;;;23.60;66.60;;;;;;5094050;28;20052;-61
2022/08/23 02:40:01;;;;;;;3.17;1.27;;;23.60;66.70;;;;;;5095227;28;20036;-61
2022/08/23 02:42:28;;;;;;;2.65;1.33;;;23.60;66.70;;;;;;5093892;28;20453;-61
2022/08/23 02:44:54;;;;;;;1.92;1.10;;;23.50;66.60;;;;;;5094201;28;20096;-61
2022/08/23 02:47:19;;;;;;;2.22;1.20;;;23.50;66.60;;;;;;5094380;28;20040;-62
2022/08/23 02:49:45;;;;;;;2.78;1.63;;;23.50;66.60;;;;;;5094079;28;20055;-62
2022/08/23 02:52:11;;;;;;;2.53;1.30;;;23.50;66.60;;;;;;5095174;28;20388;-62
2022/08/23 02:54:37;;;;;;;3.05;1.35;;;23.50;66.60;;;;;;5093343;28;20812;-61
2022/08/23 02:57:02;;;;;;;3.30;1.33;;;23.50;66.60;;;;;;5094101;28;20047;-62
2022/08/23 02:59:28;;;;;;;2.47;1.60;;;23.60;66.60;;;;;;5094391;28;20044;-61
2022/08/23 03:01:53;;;;;;;3.13;1.83;;;23.50;66.60;;;;;;5093608;28;20036;-61
2022/08/23 03:04:19;;;;;;;2.35;1.63;;;23.50;66.60;;;;;;5092628;28;20119;-61
2022/08/23 03:06:44;;;;;;;2.53;1.40;;;23.50;66.60;;;;;;5094736;28;20040;-62
2022/08/23 03:09:10;;;;;;;2.92;1.40;;;23.50;66.60;;;;;;5094624;28;20385;-61
2022/08/23 03:11:36;;;;;;;3.83;1.52;;;23.50;66.70;;;;;;5093373;28;20511;-62
2022/08/23 03:14:01;;;;;;;2.60;1.35;;;23.50;66.70;;;;;;5094623;28;20067;-62
2022/08/23 03:16:27;;;;;;;2.97;1.50;;;23.50;66.70;;;;;;5094053;28;20051;-62
2022/08/23 03:18:53;;;;;;;2.65;1.42;;;23.50;66.70;;;;;;5093411;28;20044;-61
2022/08/23 03:21:18;;;;;;;3.60;1.35;;;23.50;66.70;;;;;;5094067;28;20181;-61
2022/08/23 03:23:44;;;;;;;2.65;1.30;;;23.50;66.70;;;;;;5094529;28;20089;-62
2022/08/23 03:26:10;;;;;;;2.20;1.33;;;23.50;66.70;;;;;;5093566;28;20050;-61
2022/08/23 03:28:36;;;;;;;2.65;1.42;;;23.50;66.70;;;;;;5094067;28;20036;-62
2022/08/23 03:31:02;;;;;;;2.42;1.40;;;23.50;66.70;;;;;;5093789;28;20561;-62
2022/08/23 03:33:27;;;;;;;2.47;1.50;;;23.50;66.70;;;;;;5126127;27;20048;-61
2022/08/23 03:36:00;;;;;;;2.15;1.27;;;23.50;67.40;;;;;;5092518;28;20093;-61
2022/08/23 03:38:26;;;;;;;4.05;1.42;;;23.50;66.80;;;;;;5093979;28;20076;-61
2022/08/23 03:40:52;;;;;;;2.38;1.42;;;23.50;66.80;;;;;;5093263;28;20087;-62
2022/08/23 03:43:18;;;;;;;1.77;1.27;;;23.40;66.70;;;;;;5093798;28;20040;-62
2022/08/23 03:45:44;;;;;;;2.85;1.42;;;23.40;66.70;;;;;;5092908;28;20048;-61
2022/08/23 03:48:09;;;;;;;3.03;1.65;;;23.40;66.70;;;;;;5093977;28;20488;-61
2022/08/23 03:50:35;;;;;;;4.82;1.60;;;23.40;66.70;;;;;;5093653;28;20044;-61
2022/08/23 03:53:01;;;;;;;2.13;1.42;;;23.40;66.80;;;;;;5093053;28;20044;-61
2022/08/23 03:55:26;;;;;;;3.10;1.50;;;23.40;66.80;;;;;;5093224;28;20040;-61
2022/08/23 03:57:52;;;;;;;3.35;1.50;;;23.40;66.80;;;;;;5093735;28;20044;-61
2022/08/23 04:00:17;;;;;;;3.63;1.42;;;23.40;66.80;;;;;;5091800;28;20097;-61
2022/08/23 04:02:43;;;;;;;2.17;1.45;;;23.40;66.80;;;;;;5083803;28;20484;-61
2022/08/23 04:05:09;;;;;;;3.05;1.63;;;23.40;66.70;;;;;;5092861;28;20121;-61
2022/08/23 04:07:37;;;;;;;2.90;1.70;;;23.40;66.80;;;;;;5092342;28;20040;-62
2022/08/23 04:10:04;;;;;;;2.75;1.40;;;23.40;66.80;;;;;;5093316;28;20047;-61
2022/08/23 04:12:29;;;;;;;2.90;1.30;;;23.40;66.80;;;;;;5093000;28;20443;-61
2022/08/23 04:14:55;;;;;;;1.85;1.33;;;23.40;66.70;;;;;;5092260;28;20125;-62
2022/08/23 04:17:20;;;;;;;2.85;1.80;;;23.40;66.70;;;;;;5091542;28;20170;-61
2022/08/23 04:19:46;;;;;;;2.17;1.35;;;23.40;66.70;;;;;;5093473;28;20044;-61
2022/08/23 04:22:12;;;;;;;3.20;1.40;;;23.40;66.80;;;;;;5092609;28;20079;-61
2022/08/23 04:24:38;;;;;;;1.75;1.33;;;23.40;67.40;;;;;;5092746;28;20047;-61
2022/08/23 04:27:04;;;;;;;2.45;1.48;;;23.40;66.80;;;;;;5093051;28;20124;-61
2022/08/23 04:29:30;;;;;;;3.15;1.60;;;23.40;66.80;;;;;;5092146;28;20051;-61
2022/08/23 04:31:55;;;;;;;2.70;1.70;;;23.40;66.80;;;;;;5092806;28;20062;-61
2022/08/23 04:34:21;;;;;;;2.85;1.40;;;23.40;66.80;;;;;;5092849;28;20036;-62
2022/08/23 04:36:47;;;;;;;2.65;1.45;;;23.40;66.80;;;;;;5091058;28;20480;-61
2022/08/23 04:39:13;;;;;;;1.98;1.48;;;23.40;66.80;;;;;;5092886;28;20377;-61
2022/08/23 04:44:23;;;;;;;2.88;1.40;;;23.40;66.80;;;;;;5092825;28;20079;-61
2022/08/23 04:46:49;;;;;;;2.15;1.27;;;23.40;66.80;;;;;;5092832;28;20039;-62
2022/08/23 04:49:14;;;;;;;3.35;1.80;;;23.40;66.80;;;;;;5091858;28;20482;-61
2022/08/23 04:51:40;;;;;;;2.30;1.60;;;23.30;66.70;;;;;;5092789;28;20048;-61
2022/08/23 04:54:06;;;;;;;3.03;1.40;;;23.30;66.70;;;;;;5092667;28;20047;-61
2022/08/23 04:56:32;;;;;;;2.63;1.48;;;23.30;66.70;;;;;;5091625;28;20048;-61
2022/08/23 04:58:58;;;;;;;2.53;1.20;;;23.30;66.70;;;;;;5092846;28;20040;-61
2022/08/23 05:01:24;;;;;;;2.15;1.40;;;23.30;66.70;;;;;;5092540;28;20062;-61
2022/08/23 05:03:53;;;;;;;2.13;1.25;;;23.30;66.70;;;;;;5092147;28;20043;-61
2022/08/23 05:06:19;;;;;;;3.22;1.70;;;23.30;66.70;;;;;;5092259;28;20084;-61
2022/08/23 05:08:45;;;;;;;1.88;1.20;;;23.30;66.70;;;;;;5092563;28;20399;-61
2022/08/23 05:11:10;;;;;;;2.63;1.40;;;23.30;66.70;;;;;;5091598;28;20541;-61
2022/08/23 05:13:36;;;;;;;2.58;1.40;;;23.30;66.70;;;;;;5092376;28;20066;-61
2022/08/23 05:16:02;;;;;;;2.10;1.35;;;23.30;66.60;;;;;;5092699;28;20044;-61
2022/08/23 05:18:28;;;;;;;2.95;1.60;;;23.30;66.60;;;;;;5091579;28;20044;-61
2022/08/23 05:20:53;;;;;;;3.13;1.50;;;23.40;66.70;;;;;;5092448;28;20051;-61
2022/08/23 05:23:19;;;;;;;6.57;3.40;;;23.40;66.70;;;;;;5092413;28;20036;-63
2022/08/23 05:25:51;;;;;;;9.77;5.32;;;23.30;66.20;;;;;;5093172;28;20040;-60
2022/08/23 05:28:24;;;;;;;10.48;6.40;;;23.30;64.80;;;;;;5096495;28;20051;-59
2022/08/23 05:30:55;;;;;;;14.25;6.82;;;23.20;63.40;;;;;;5096141;28;20084;-59
2022/08/23 05:33:20;;;;;;;10.38;7.07;;;23.10;63.00;;;;;;5095268;28;20036;-59
2022/08/23 05:35:46;;;;;;;10.63;6.63;;;23.00;62.90;;;;;;5094521;28;20480;-59
2022/08/23 05:38:11;;;;;;;10.32;6.53;;;22.90;62.70;;;;;;5095626;28;20048;-60
2022/08/23 05:40:37;;;;;;;12.88;6.90;;;22.80;62.70;;;;;;5095704;28;20048;-59
2022/08/23 05:43:02;;;;;;;9.30;6.68;;;22.70;62.80;;;;;;5096222;28;20036;-64
2022/08/23 05:45:28;;;;;;;10.43;7.25;;;22.70;62.90;;;;;;5095312;28;20047;-65
2022/08/23 05:47:53;;;;;;;9.45;7.10;;;22.60;63.00;;;;;;5094834;28;20094;-65
2022/08/23 05:50:19;;;;;;;13.35;7.28;;;22.50;63.00;;;;;;5095606;28;20563;-64
2022/08/23 05:52:44;;;;;;;9.98;7.10;;;22.50;63.20;;;;;;5095409;28;20491;-65
2022/08/23 05:55:10;;;;;;;11.55;7.90;;;22.40;63.30;;;;;;5096013;28;20063;-65
2022/08/23 05:57:39;;;;;;;8.40;6.93;;;22.40;63.40;;;;;;5095866;28;20080;-65
2022/08/23 06:00:07;;;;;;;11.27;6.82;;;22.30;63.50;;;;;;5095255;28;20044;-65
2022/08/23 06:02:33;;;;;;;8.80;6.95;;;22.30;63.80;;;;;;5094135;28;20094;-63
2022/08/23 06:04:58;;;;;;;12.70;7.07;;;22.30;63.80;;;;;;5095903;28;20125;-64
2022/08/23 06:07:24;;;;;;;11.10;7.43;;;22.20;63.70;;;;;;5094668;28;20032;-65
2022/08/23 06:09:49;;;;;;;9.02;7.63;;;22.20;63.70;;;;;;5095858;28;20052;-60
2022/08/23 06:12:15;;;;;;;8.93;6.47;;;22.20;63.80;;;;;;5095026;28;20510;-60
2022/08/23 06:14:40;;;;;;;8.73;6.13;;;22.20;63.80;;;;;;5091934;28;20044;-60
2022/08/23 06:17:06;;;;;;;9.30;6.93;;;22.20;63.90;;;;;;5094257;28;20039;-60
2022/08/23 06:19:32;;;;;;;10.30;6.28;;;22.20;64.00;;;;;;5095420;28;20097;-61
2022/08/23 06:21:58;;;;;;;9.65;5.95;;;22.30;64.00;;;;;;5094801;28;20059;-60
2022/08/23 06:24:24;;;;;;;8.05;5.97;;;22.40;64.10;;;;;;5093895;28;20040;-60
2022/08/23 06:26:50;;;;;;;6.93;5.35;;;22.40;64.00;;;;;;5095509;28;20032;-63
2022/08/23 06:29:16;;;;;;;5.85;5.00;;;22.40;64.00;;;;;;5094566;28;20487;-60
2022/08/23 06:31:44;;;;;;;8.32;5.35;;;22.40;64.00;;;;;;5094332;28;20063;-61
2022/08/23 06:34:17;;;;;;;8.63;4.82;;;22.50;64.00;;;;;;5074719;28;20049;-61
2022/08/23 06:36:45;;;;;;;7.32;5.00;;;22.50;64.20;;;;;;5073260;28;20041;-61
2022/08/23 06:39:11;;;;;;;8.63;5.03;;;22.60;64.10;;;;;;5074989;28;20040;-60
2022/08/23 06:41:36;;;;;;;7.65;4.75;;;22.60;64.10;;;;;;5073745;28;20094;-61
2022/08/23 06:44:02;;;;;;;8.10;5.38;;;22.70;64.00;;;;;;5074810;28;20043;-60
2022/08/23 06:46:28;;;;;;;7.30;5.00;;;22.70;64.70;;;;;;5074319;28;20054;-60
2022/08/23 06:48:54;;;;;;;7.97;4.65;;;22.70;64.10;;;;;;5073961;28;20044;-60
2022/08/23 06:51:22;;;;;;;7.22;5.05;;;22.70;64.20;;;;;;5074241;28;20112;-67
2022/08/23 06:53:48;;;;;;;9.85;4.90;;;22.80;64.20;;;;;;5090462;28;20439;-67
2022/08/23 06:56:13;;;;;;;7.05;4.50;;;22.80;64.40;;;;;;5073643;28;20048;-66
2022/08/23 06:58:39;;;;;;;5.43;4.50;;;22.80;64.30;;;;;;5074750;28;20097;-65
2022/08/23 07:01:31;;;;;;;5.30;4.45;;;22.80;64.40;;;;;;5074743;28;20119;-66
2022/08/23 07:03:57;;;;;;;7.70;4.53;;;22.90;64.40;;;;;;5073921;28;20051;-65
2022/08/23 07:06:23;;;;;;;5.65;3.80;;;22.90;64.40;;;;;;5074147;28;20040;-67
2022/08/23 07:08:49;;;;;;;8.40;5.00;;;22.90;64.30;;;;;;5074390;28;20043;-66
2022/08/23 07:11:15;;;;;;;5.80;4.50;;;22.90;64.30;;;;;;5073218;28;20033;-66
2022/08/23 07:13:41;;;;;;;6.85;4.60;;;23.00;64.30;;;;;;5074166;28;20093;-66
2022/08/23 07:16:06;;;;;;;7.13;4.55;;;23.00;64.30;;;;;;5074135;28;20048;-66
2022/08/23 07:18:32;;;;;;;6.88;4.35;;;23.00;64.30;;;;;;5073315;28;20048;-66
2022/08/23 07:20:59;;;;;;;6.53;4.78;;;23.00;64.30;;;;;;5074106;28;20052;-66
2022/08/23 07:23:25;;;;;;;5.27;4.17;;;23.00;64.20;;;;;;5073778;28;20159;-66
2022/08/23 07:25:51;;;;;;;6.43;4.20;;;23.00;64.20;;;;;;5073078;28;20406;-66
2022/08/23 07:28:17;;;;;;;7.32;4.55;;;23.00;64.20;;;;;;5073710;28;20036;-67
2022/08/23 07:30:42;;;;;;;5.85;4.10;;;23.10;64.30;;;;;;5073507;28;20186;-67
2022/08/23 07:33:08;;;;;;;7.80;4.45;;;23.10;64.30;;;;;;5076621;28;20044;-67
2022/08/23 07:35:33;;;;;;;6.80;3.90;;;23.10;64.20;;;;;;5081597;28;20083;-67
2022/08/23 07:37:59;;;;;;;7.18;4.00;;;23.10;64.20;;;;;;5090042;28;20037;-68
2022/08/23 07:40:24;;;;;;;6.20;4.00;;;23.10;64.20;;;;;;5081660;28;20044;-67
2022/08/23 07:42:50;;;;;;;5.55;4.15;;;23.10;64.10;;;;;;5090382;28;20040;-67
2022/08/23 07:45:16;;;;;;;5.75;4.00;;;23.20;64.80;;;;;;5087982;28;20074;-67
2022/08/23 07:47:42;;;;;;;4.97;3.40;;;23.20;64.20;;;;;;5090924;28;20043;-68
2022/08/23 07:50:08;;;;;;;4.80;3.40;;;23.20;64.10;;;;;;5091908;28;20060;-67
2022/08/23 07:52:34;;;;;;;4.82;3.50;;;23.20;64.10;;;;;;5092346;28;20119;-68
2022/08/23 07:55:00;;;;;;;7.10;3.63;;;23.20;64.00;;;;;;5093086;28;20395;-68
2022/08/23 07:57:26;;;;;;;4.88;3.83;;;23.20;64.00;;;;;;5092170;28;20123;-68
2022/08/23 07:59:52;;;;;;;6.93;3.78;;;23.20;63.90;;;;;;5092406;28;20040;-67
2022/08/23 08:02:17;;;;;;;5.88;3.30;;;23.20;63.90;;;;;;5092695;28;20537;-65
2022/08/23 08:04:43;;;;;;;4.40;3.15;;;23.30;63.90;;;;;;5093255;28;20138;-69
2022/08/23 08:07:08;;;;;;;8.25;3.67;;;23.30;63.70;;;;;;5092430;28;20483;-62
2022/08/23 08:09:34;;;;;;;10.98;4.07;;;23.30;63.60;;;;;;5093108;28;20529;-66
2022/08/23 08:11:59;;;;;;;5.53;3.50;;;23.30;63.20;;;;;;5093256;28;20555;-66
2022/08/23 08:14:25;;;;;;;6.20;2.90;;;23.30;63.10;;;;;;5091436;28;20051;-65
2022/08/23 08:16:51;;;;;;;7.50;3.45;;;23.30;62.90;;;;;;5093182;28;20079;-65
2022/08/23 08:19:17;;;;;;;5.00;3.38;;;23.30;62.90;;;;;;5092878;28;20126;-65
2022/08/23 08:21:44;;;;;;;4.43;3.03;;;23.30;62.90;;;;;;5092226;28;20040;-65
2022/08/23 08:24:11;;;;;;;4.88;3.30;;;23.30;62.80;;;;;;5092635;28;20047;-65
2022/08/23 08:26:37;;;;;;;7.35;3.85;;;23.30;62.90;;;;;;5092280;28;20040;-65
2022/08/23 08:29:03;;;;;;;5.95;3.13;;;23.40;63.00;;;;;;5092074;28;20063;-65
2022/08/23 08:31:28;;;;;;;8.80;3.10;;;23.40;63.00;;;;;;5092048;28;20213;-65
2022/08/23 08:33:54;;;;;;;8.63;3.30;;;23.40;63.00;;;;;;5092455;28;20044;-65
2022/08/23 08:36:34;;;;;;;6.85;3.50;;;23.40;63.00;;;;;;5090843;28;20040;-65
2022/08/23 08:39:00;;;;;;;7.43;3.42;;;23.40;63.10;;;;;;5088832;28;20046;-65
2022/08/23 08:41:57;;;;;;;6.85;3.28;;;23.40;63.10;;;;;;5090989;28;20052;-65
2022/08/23 08:44:46;;;;;;;5.77;3.37;;;23.40;63.00;;;;;;5091417;28;20044;-65
2022/08/23 08:47:18;;;;;;;6.32;3.13;;;23.40;63.10;;;;;;5092630;28;20089;-65
2022/08/23 08:49:52;;;;;;;5.15;3.05;;;23.40;63.10;;;;;;5074604;28;20040;-65
2022/08/23 08:52:23;;;;;;;5.28;3.15;;;23.40;63.00;;;;;;5092440;28;20051;-65
2022/08/23 08:54:49;;;;;;;5.32;3.10;;;23.50;63.10;;;;;;5074553;28;20111;-65
2022/08/23 08:57:17;;;;;;;5.53;3.22;;;23.50;63.10;;;;;;5091459;28;20126;-65
2022/08/23 08:59:59;;;;;;;5.40;2.97;;;23.50;63.10;;;;;;5074284;28;20051;-65
2022/08/23 09:02:34;;;;;;;5.30;3.10;;;23.50;63.00;;;;;;5090135;28;20068;-65
2022/08/23 09:05:02;;;;;;;4.28;3.40;;;23.50;63.00;;;;;;5074191;28;20047;-65
2022/08/23 09:07:36;;;;;;;;;;;23.50;63.10;;;;;;5074198;28;20496;-65
2022/08/23 09:10:33;;;;;;;5.47;3.33;;;23.50;63.20;;;;;;5090245;28;19924;-65
2022/08/23 09:13:20;;;;;;;5.40;3.00;;;23.50;63.10;;;;;;5092504;28;20056;-65
2022/08/23 09:16:04;;;;;;;5.68;3.25;;;23.50;63.10;;;;;;5091046;28;20590;-65
2022/08/23 09:18:31;;;;;;;8.15;3.50;;;23.50;63.00;;;;;;5089960;28;20047;-65
2022/08/23 09:20:57;;;;;;;8.13;3.22;;;23.60;63.00;;;;;;5090724;28;20040;-65
2022/08/23 09:23:32;;;;;;;6.53;3.60;;;23.60;63.00;;;;;;5106915;28;20040;-65
2022/08/23 09:25:59;;;;;;;5.35;3.30;;;23.60;63.00;;;;;;5090755;28;20475;-66
2022/08/23 09:28:26;;;;;;;7.82;3.17;;;23.60;63.00;;;;;;5091734;28;20115;-65
2022/08/23 09:30:54;;;;;;;4.83;2.90;;;23.60;62.90;;;;;;5090951;28;20511;-65
2022/08/23 09:33:24;;;;;;;5.03;2.95;;;23.60;63.00;;;;;;5091892;28;20043;-66
2022/08/23 09:36:05;;;;;;;4.28;2.97;;;23.60;62.90;;;;;;5092204;28;20040;-65
2022/08/23 09:38:31;;;;;;;6.78;3.17;;;23.60;62.90;;;;;;5091080;28;20048;-66
2022/08/23 09:40:57;;;;;;;7.13;3.42;;;23.60;62.80;;;;;;5091789;28;20043;-66
2022/08/23 09:43:30;;;;;;;5.60;3.60;;;23.70;62.90;;;;;;5091538;28;20130;-65
2022/08/23 09:45:58;;;;;;;6.90;3.22;;;23.70;62.80;;;;;;5090119;28;20040;-65
2022/08/23 09:48:39;;;;;;;6.53;3.55;;;23.70;62.90;;;;;;5091664;28;20129;-65
2022/08/23 09:51:23;;;;;;;4.32;3.00;;;23.70;62.90;;;;;;5090923;28;20051;-65
2022/08/23 09:54:09;;;;;;;4.60;2.92;;;23.70;62.90;;;;;;5091703;28;20052;-66
2022/08/23 09:56:40;;;;;;;6.07;3.10;;;23.70;62.90;;;;;;5108292;28;20480;-65
2022/08/23 09:59:25;;;;;;;5.80;3.00;;;23.70;62.40;;;;;;5091311;28;20040;-65
2022/08/23 10:01:51;;;;;;;8.25;3.67;;;23.80;62.20;;;;;;5090484;28;20051;-63
2022/08/23 10:04:36;;;;;;;6.32;3.15;;;23.80;62.30;;;;;;5090517;28;20118;-66
2022/08/23 10:07:20;;;;;;;6.13;3.05;;;23.80;62.20;;;;;;5089801;28;20446;-65
2022/08/23 10:09:46;;;;;;;5.15;3.38;;;23.80;61.90;;;;;;5090858;28;20082;-67
2022/08/23 10:12:11;;;;;;;6.75;3.65;;;23.80;61.90;;;;;;5093819;28;20079;-66
2022/08/23 10:14:37;;;;;;;6.50;3.75;;;23.80;62.20;;;;;;5094330;28;20040;-67
2022/08/23 10:17:09;;;;;;;5.00;3.22;;;23.90;63.10;;;;;;5093836;28;20051;-66
2022/08/23 10:19:50;;;;;;;5.72;3.78;;;23.90;62.70;;;;;;5094322;28;20165;-65
2022/08/23 10:22:25;;;;;;;6.18;3.63;;;23.90;63.00;;;;;;5093444;28;20051;-65
2022/08/23 10:25:10;;;;;;;7.47;4.00;;;23.90;63.30;;;;;;5076790;28;20044;-64
2022/08/23 10:30:39;;;;;;;7.50;4.20;;;23.90;63.40;;;;;;5080097;28;20060;-66
2022/08/23 10:33:11;;;;;;;6.55;4.38;;;23.90;63.40;;;;;;5093621;28;20373;-66
2022/08/23 10:36:06;;;;;;;6.95;4.20;;;23.90;63.40;;;;;;5092549;28;20052;-67
2022/08/23 10:38:37;;;;;;;6.18;4.50;;;23.90;63.60;;;;;;5093202;28;20079;-66
2022/08/23 10:41:34;;;;;;;5.25;4.25;;;23.90;63.60;;;;;;5092976;28;20044;-66
2022/08/23 10:44:05;;;;;;;6.38;4.32;;;24.00;63.70;;;;;;5092984;28;20039;-66
2022/08/23 10:46:31;;;;;;;6.97;5.05;;;23.90;63.50;;;;;;5093104;28;20414;-66
2022/08/23 10:48:59;;;;;;;6.82;4.80;;;24.00;63.60;;;;;;5076159;28;20125;-66
2022/08/23 10:51:33;;;;;;;7.70;4.53;;;24.00;63.50;;;;;;5076767;28;20090;-66
2022/08/23 10:54:05;;;;;;;7.35;5.20;;;24.00;63.40;;;;;;5095035;28;20047;-66
2022/08/23 10:56:30;;;;;;;6.18;4.97;;;24.00;63.50;;;;;;5092220;28;20487;-67
2022/08/23 10:59:03;;;;;;;8.45;4.97;;;24.00;63.60;;;;;;5094820;28;20040;-64
2022/08/23 11:02:06;;;;;;;5.55;4.82;;;24.00;63.60;;;;;;5076632;28;20097;-59
2022/08/23 11:04:43;;;;;;;6.20;4.93;;;24.00;63.50;;;;;;5094325;28;20040;-59
2022/08/23 11:07:18;;;;;;;6.28;4.80;;;24.00;63.50;;;;;;5094654;28;20047;-59
2022/08/23 11:10:17;;;;;;;5.85;4.75;;;24.00;63.50;;;;;;5093750;28;20149;-62
2022/08/23 11:13:14;;;;;;;6.65;5.07;;;24.00;64.10;;;;;;5092907;28;20048;-64
2022/08/23 11:15:43;;;;;;;7.72;4.82;;;24.00;63.50;;;;;;5093494;28;20043;-59
2022/08/23 11:18:11;;;;;;;5.63;4.82;;;24.00;63.50;;;;;;5093692;28;20048;-66
2022/08/23 11:20:48;;;;;;;6.82;5.00;;;24.00;63.50;;;;;;5094104;28;20558;-61
2022/08/23 11:23:34;;;;;;;7.15;4.68;;;24.00;63.50;;;;;;5092879;28;20105;-58
2022/08/23 11:26:00;;;;;;;6.78;5.38;;;24.00;63.50;;;;;;5085758;28;20094;-60
2022/08/23 11:28:25;;;;;;;6.55;5.15;;;24.00;63.50;;;;;;5075466;28;20044;-69
2022/08/23 11:31:20;;;;;;;5.18;4.65;;;24.00;63.50;;;;;;5092690;28;20134;-68
2022/08/23 11:33:48;;;;;;;7.22;4.50;;;24.10;63.50;;;;;;5080932;28;20131;-61
2022/08/23 11:36:22;;;;;;;7.22;4.85;;;24.10;63.50;;;;;;5092105;28;20044;-61
2022/08/23 11:38:48;;;;;;;7.15;4.60;;;24.10;63.60;;;;;;5093017;28;20077;-62
2022/08/23 11:41:17;;;;;;;6.03;4.97;;;24.10;63.50;;;;;;5092632;28;20452;-60
2022/08/23 11:43:48;;;;;;;6.88;5.03;;;24.10;63.50;;;;;;5093603;28;20044;-60
2022/08/23 11:46:25;;;;;;;6.93;4.45;;;24.10;63.50;;;;;;5091519;28;20036;-60
2022/08/23 11:48:54;;;;;;;7.13;5.38;;;24.10;63.50;;;;;;5092693;28;20131;-60
2022/08/23 11:51:26;;;;;;;8.48;5.32;;;24.10;63.50;;;;;;5074618;28;20040;-63
2022/08/23 11:53:52;;;;;;;5.43;4.57;;;24.10;63.40;;;;;;5092652;28;20044;-59
2022/08/23 11:56:41;;;;;;;6.35;4.50;;;24.10;63.40;;;;;;5092913;28;20050;-59
2022/08/23 11:59:40;;;;;;;6.65;4.78;;;24.10;63.00;;;;;;5090039;28;20472;-59
2022/08/23 12:02:33;;;;;;;10.23;5.38;;;24.10;63.00;;;;;;5088951;28;20054;-59
2022/08/23 12:05:01;;;;;;;5.38;4.15;;;24.10;62.90;;;;;;5092585;28;20120;-59
2022/08/23 12:07:51;;;;;;;6.10;3.95;;;24.10;62.90;;;;;;5091241;28;20044;-60
2022/08/23 12:10:23;;;;;;;6.13;4.05;;;24.20;61.70;;;;;;5092086;28;20066;-59
2022/08/23 12:13:24;;;;;;;4.93;3.70;;;24.20;62.10;;;;;;5091380;28;20088;-59
2022/08/23 12:16:09;;;;;;;7.07;4.13;;;24.20;61.30;;;;;;5093028;28;20050;-59
2022/08/23 12:18:37;;;;;;;6.35;4.43;;;24.20;61.30;;;;;;5093156;28;20058;-59
2022/08/23 12:21:04;;;;;;;5.65;4.07;;;24.20;61.20;;;;;;5091100;28;20080;-59
2022/08/23 12:23:30;;;;;;;6.35;4.05;;;24.20;61.00;;;;;;5091978;28;20040;-59
2022/08/23 12:26:09;;;;;;;6.82;3.70;;;24.20;60.70;;;;;;5090691;28;20480;-59
2022/08/23 12:28:44;;;;;;;6.60;3.92;;;24.30;60.40;;;;;;5092510;28;20419;-59
2022/08/23 12:31:24;;;;;;;5.82;4.18;;;24.30;60.50;;;;;;5075236;28;20469;-60
2022/08/23 12:34:05;;;;;;;4.78;3.75;;;24.30;60.50;;;;;;5092162;28;20043;-60
2022/08/23 12:37:06;;;;;;;5.65;3.60;;;24.30;60.40;;;;;;5091647;28;20567;-60
2022/08/23 12:39:45;;;;;;;7.25;3.83;;;24.30;60.40;;;;;;5091874;28;20178;-60
2022/08/23 12:42:18;;;;;;;5.05;3.60;;;24.30;60.00;;;;;;5090928;28;20044;-59
2022/08/23 12:44:45;;;;;;;4.90;3.50;;;24.30;59.70;;;;;;5075306;28;20129;-61
2022/08/23 12:47:12;;;;;;;7.93;4.18;;;24.30;59.50;;;;;;5093035;28;20044;-61
2022/08/23 12:49:37;;;;;;;7.50;3.67;;;24.30;58.80;;;;;;5091678;28;20488;-61
2022/08/23 12:52:08;;;;;;;4.80;3.15;;;24.30;58.20;;;;;;5092395;28;20047;-61
2022/08/23 12:54:42;;;;;;;6.82;3.47;;;24.40;57.70;;;;;;5091102;28;20048;-62
2022/08/23 12:57:11;;;;;;;5.28;3.40;;;24.40;57.80;;;;;;5092809;28;20055;-62
2022/08/23 12:59:51;;;;;;;6.30;3.60;;;24.40;58.10;;;;;;5091074;28;20037;-62
2022/08/23 13:02:25;;;;;;;5.30;3.55;;;24.40;58.50;;;;;;5074384;28;20039;-61
2022/08/23 13:04:50;;;;;;;6.05;3.80;;;24.50;58.90;;;;;;5074484;28;20066;-62
2022/08/23 13:07:19;;;;;;;4.40;3.60;;;24.50;59.10;;;;;;5074583;28;20472;-61
2022/08/23 13:09:45;;;;;;;5.50;3.47;;;24.50;59.30;;;;;;5090677;28;20048;-62
2022/08/23 13:12:11;;;;;;;5.30;3.38;;;24.50;59.50;;;;;;5092300;28;20120;-62
2022/08/23 13:14:43;;;;;;;6.95;3.65;;;24.50;59.60;;;;;;5074270;28;20399;-62